sensor_id;sensor_type;location;lat;lon;timestamp;pressure;altitude;pressure_sealevel;temperature;humidity
71778;BME280;59609;52.430;4.668;2023-04-27T00:01:05;102163.44;;;4.69;96.24
71778;BME280;59609;52.430;4.668;2023-04-27T00:03:31;102149.00;;;4.67;96.10
71778;BME280;59609;52.430;4.668;2023-04-27T00:05:56;102154.97;;;4.59;96.38
71778;BME280;59609;52.430;4.668;2023-04-27T00:08:21;102147.94;;;4.55;95.98
71778;BME280;59609;52.430;4.668;2023-04-27T00:10:47;102148.88;;;4.54;95.70
71778;BME280;59609;52.430;4.668;2023-04-27T00:13:12;102148.59;;;4.45;94.84
71778;BME280;59609;52.430;4.668;2023-04-27T00:15:37;102149.88;;;4.39;95.50
71778;BME280;59609;52.430;4.668;2023-04-27T00:18:03;102149.66;;;4.42;96.28
71778;BME280;59609;52.430;4.668;2023-04-27T00:20:29;102138.94;;;4.39;97.05
71778;BME280;59609;52.430;4.668;2023-04-27T00:22:55;102135.41;;;4.37;97.17
71778;BME280;59609;52.430;4.668;2023-04-27T00:25:20;102137.38;;;4.35;96.84
71778;BME280;59609;52.430;4.668;2023-04-27T00:27:46;102138.94;;;4.39;97.79
71778;BME280;59609;52.430;4.668;2023-04-27T00:30:11;102138.06;;;4.39;97.83
71778;BME280;59609;52.430;4.668;2023-04-27T00:32:36;102123.53;;;4.24;98.07
71778;BME280;59609;52.430;4.668;2023-04-27T00:35:02;102140.09;;;4.35;98.87
71778;BME280;59609;52.430;4.668;2023-04-27T00:37:27;102134.94;;;4.31;98.73
71778;BME280;59609;52.430;4.668;2023-04-27T00:39:53;102143.41;;;4.26;98.03
71778;BME280;59609;52.430;4.668;2023-04-27T00:42:18;102141.56;;;4.27;98.48
71778;BME280;59609;52.430;4.668;2023-04-27T00:44:46;102139.81;;;4.26;98.92
71778;BME280;59609;52.430;4.668;2023-04-27T00:47:12;102132.59;;;4.25;99.78
71778;BME280;59609;52.430;4.668;2023-04-27T00:49:38;102132.59;;;4.25;100.00
71778;BME280;59609;52.430;4.668;2023-04-27T00:52:05;102140.06;;;4.21;100.00
71778;BME280;59609;52.430;4.668;2023-04-27T00:54:30;102132.97;;;4.19;100.00
71778;BME280;59609;52.430;4.668;2023-04-27T00:56:56;102134.31;;;4.11;100.00
71778;BME280;59609;52.430;4.668;2023-04-27T00:59:22;102137.31;;;4.07;100.00
71778;BME280;59609;52.430;4.668;2023-04-27T01:01:54;102133.81;;;4.05;100.00
71778;BME280;59609;52.430;4.668;2023-04-27T01:04:20;102137.44;;;4.05;100.00
71778;BME280;59609;52.430;4.668;2023-04-27T01:06:46;102137.50;;;4.04;100.00
71778;BME280;59609;52.430;4.668;2023-04-27T01:09:11;102143.16;;;4.01;100.00
71778;BME280;59609;52.430;4.668;2023-04-27T01:11:37;102149.28;;;4.04;100.00
71778;BME280;59609;52.430;4.668;2023-04-27T01:14:04;102144.91;;;4.02;100.00
71778;BME280;59609;52.430;4.668;2023-04-27T01:16:31;102136.16;;;3.97;100.00
71778;BME280;59609;52.430;4.668;2023-04-27T01:18:57;102139.91;;;3.94;100.00
71778;BME280;59609;52.430;4.668;2023-04-27T01:21:22;102135.72;;;3.89;100.00
71778;BME280;59609;52.430;4.668;2023-04-27T01:23:48;102125.78;;;3.88;100.00
71778;BME280;59609;52.430;4.668;2023-04-27T01:26:13;102126.84;;;3.85;100.00
71778;BME280;59609;52.430;4.668;2023-04-27T01:28:43;102123.16;;;3.86;100.00
71778;BME280;59609;52.430;4.668;2023-04-27T01:31:09;102123.34;;;3.83;100.00
71778;BME280;59609;52.430;4.668;2023-04-27T01:33:35;102108.22;;;3.78;100.00
71778;BME280;59609;52.430;4.668;2023-04-27T01:36:01;102108.41;;;3.75;100.00
71778;BME280;59609;52.430;4.668;2023-04-27T01:38:26;102113.16;;;3.71;100.00
71778;BME280;59609;52.430;4.668;2023-04-27T01:40:52;102105.09;;;3.70;100.00
71778;BME280;59609;52.430;4.668;2023-04-27T01:43:19;102094.47;;;3.65;100.00
71778;BME280;59609;52.430;4.668;2023-04-27T01:45:45;102091.84;;;3.63;100.00
71778;BME280;59609;52.430;4.668;2023-04-27T01:48:10;102098.06;;;3.66;100.00
71778;BME280;59609;52.430;4.668;2023-04-27T01:50:36;102095.78;;;3.58;100.00
71778;BME280;59609;52.430;4.668;2023-04-27T01:53:01;102091.94;;;3.62;100.00
71778;BME280;59609;52.430;4.668;2023-04-27T01:55:27;102097.31;;;3.63;100.00
71778;BME280;59609;52.430;4.668;2023-04-27T01:57:53;102088.69;;;3.55;100.00
71778;BME280;59609;52.430;4.668;2023-04-27T02:00:18;102097.94;;;3.53;100.00
71778;BME280;59609;52.430;4.668;2023-04-27T02:02:43;102091.78;;;3.49;100.00
71778;BME280;59609;52.430;4.668;2023-04-27T02:05:09;102086.16;;;3.52;100.00
71778;BME280;59609;52.430;4.668;2023-04-27T02:07:35;102086.53;;;3.46;100.00
71778;BME280;59609;52.430;4.668;2023-04-27T02:10:00;102090.28;;;3.44;100.00
71778;BME280;59609;52.430;4.668;2023-04-27T02:12:26;102096.53;;;3.46;100.00
71778;BME280;59609;52.430;4.668;2023-04-27T02:14:51;102098.31;;;3.47;100.00
71778;BME280;59609;52.430;4.668;2023-04-27T02:17:16;102095.66;;;3.45;100.00
71778;BME280;59609;52.430;4.668;2023-04-27T02:19:42;102095.47;;;3.48;100.00
71778;BME280;59609;52.430;4.668;2023-04-27T02:22:07;102090.03;;;3.48;100.00
71778;BME280;59609;52.430;4.668;2023-04-27T02:24:34;102090.22;;;3.45;100.00
71778;BME280;59609;52.430;4.668;2023-04-27T02:26:59;102094.97;;;3.42;100.00
71778;BME280;59609;52.430;4.668;2023-04-27T02:29:29;102086.88;;;3.40;100.00
71778;BME280;59609;52.430;4.668;2023-04-27T02:31:54;102084.84;;;3.44;100.00
71778;BME280;59609;52.430;4.668;2023-04-27T02:34:19;102089.31;;;3.45;100.00
71778;BME280;59609;52.430;4.668;2023-04-27T02:36:45;102082.03;;;3.45;100.00
71778;BME280;59609;52.430;4.668;2023-04-27T02:39:10;102084.25;;;3.39;100.00
71778;BME280;59609;52.430;4.668;2023-04-27T02:41:35;102083.38;;;3.38;100.00
71778;BME280;59609;52.430;4.668;2023-04-27T02:44:01;102087.75;;;3.41;100.00
71778;BME280;59609;52.430;4.668;2023-04-27T02:46:26;102085.13;;;3.39;100.00
71778;BME280;59609;52.430;4.668;2023-04-27T02:48:51;102080.75;;;3.37;100.00
71778;BME280;59609;52.430;4.668;2023-04-27T02:51:17;102082.66;;;3.35;100.00
71778;BME280;59609;52.430;4.668;2023-04-27T02:53:42;102089.19;;;3.32;100.00
71778;BME280;59609;52.430;4.668;2023-04-27T02:56:07;102091.78;;;3.34;100.00
71778;BME280;59609;52.430;4.668;2023-04-27T02:58:33;102075.94;;;3.26;100.00
71778;BME280;59609;52.430;4.668;2023-04-27T03:00:58;102087.41;;;3.31;100.00
71778;BME280;59609;52.430;4.668;2023-04-27T03:03:24;102091.66;;;3.37;100.00
71778;BME280;59609;52.430;4.668;2023-04-27T03:05:49;102090.41;;;3.42;100.00
71778;BME280;59609;52.430;4.668;2023-04-27T03:08:15;102099.25;;;3.46;100.00
71778;BME280;59609;52.430;4.668;2023-04-27T03:10:40;102107.75;;;3.55;100.00
71778;BME280;59609;52.430;4.668;2023-04-27T03:13:05;102096.88;;;3.55;100.00
71778;BME280;59609;52.430;4.668;2023-04-27T03:15:31;102104.84;;;3.58;100.00
71778;BME280;59609;52.430;4.668;2023-04-27T03:17:56;102095.03;;;3.56;100.00
71778;BME280;59609;52.430;4.668;2023-04-27T03:20:22;102104.09;;;3.56;100.00
71778;BME280;59609;52.430;4.668;2023-04-27T03:22:47;102096.25;;;3.50;100.00
71778;BME280;59609;52.430;4.668;2023-04-27T03:25:12;102096.16;;;3.52;100.00
71778;BME280;59609;52.430;4.668;2023-04-27T03:27:38;102097.41;;;3.46;100.00
71778;BME280;59609;52.430;4.668;2023-04-27T03:30:04;102098.31;;;3.47;100.00
71778;BME280;59609;52.430;4.668;2023-04-27T03:32:29;102101.09;;;3.45;100.00
71778;BME280;59609;52.430;4.668;2023-04-27T03:34:55;102095.72;;;3.44;100.00
71778;BME280;59609;52.430;4.668;2023-04-27T03:37:21;102099.34;;;3.44;100.00
71778;BME280;59609;52.430;4.668;2023-04-27T03:39:46;102099.53;;;3.41;100.00
71778;BME280;59609;52.430;4.668;2023-04-27T03:42:12;102093.38;;;3.38;100.00
71778;BME280;59609;52.430;4.668;2023-04-27T03:44:37;102102.69;;;3.34;100.00
71778;BME280;59609;52.430;4.668;2023-04-27T03:47:02;102095.50;;;3.33;100.00
71778;BME280;59609;52.430;4.668;2023-04-27T03:49:33;102101.13;;;3.30;100.00
71778;BME280;59609;52.430;4.668;2023-04-27T03:51:58;102101.22;;;3.28;100.00
71778;BME280;59609;52.430;4.668;2023-04-27T03:54:24;102103.50;;;3.36;100.00
71778;BME280;59609;52.430;4.668;2023-04-27T03:56:49;102100.22;;;3.45;100.00
71778;BME280;59609;52.430;4.668;2023-04-27T03:59:15;102106.19;;;3.51;100.00
71778;BME280;59609;52.430;4.668;2023-04-27T04:01:40;102101.75;;;3.64;100.00
71778;BME280;59609;52.430;4.668;2023-04-27T04:04:05;102100.69;;;3.67;100.00
71778;BME280;59609;52.430;4.668;2023-04-27T04:06:31;102101.56;;;3.68;100.00
71778;BME280;59609;52.430;4.668;2023-04-27T04:08:57;102101.56;;;3.68;100.00
71778;BME280;59609;52.430;4.668;2023-04-27T04:11:22;102116.38;;;3.63;100.00
71778;BME280;59609;52.430;4.668;2023-04-27T04:13:48;102120.66;;;3.68;100.00
71778;BME280;59609;52.430;4.668;2023-04-27T04:16:13;102113.88;;;3.75;100.00
71778;BME280;59609;52.430;4.668;2023-04-27T04:18:38;102124.03;;;3.87;100.00
71778;BME280;59609;52.430;4.668;2023-04-27T04:21:04;102118.41;;;3.90;100.00
71778;BME280;59609;52.430;4.668;2023-04-27T04:23:30;102102.75;;;3.93;100.00
71778;BME280;59609;52.430;4.668;2023-04-27T04:25:57;102111.31;;;4.01;100.00
71778;BME280;59609;52.430;4.668;2023-04-27T04:28:23;102119.88;;;3.95;100.00
71778;BME280;59609;52.430;4.668;2023-04-27T04:30:49;102125.78;;;3.88;100.00
71778;BME280;59609;52.430;4.668;2023-04-27T04:33:15;102131.03;;;3.91;100.00
71778;BME280;59609;52.430;4.668;2023-04-27T04:35:42;102127.84;;;3.98;100.00
71778;BME280;59609;52.430;4.668;2023-04-27T04:38:07;102135.78;;;4.03;100.00
71778;BME280;59609;52.430;4.668;2023-04-27T04:40:33;102143.56;;;4.09;100.00
71778;BME280;59609;52.430;4.668;2023-04-27T04:42:59;102137.22;;;4.08;100.00
71778;BME280;59609;52.430;4.668;2023-04-27T04:45:24;102147.38;;;4.21;100.00
71778;BME280;59609;52.430;4.668;2023-04-27T04:47:50;102133.66;;;4.22;100.00
71778;BME280;59609;52.430;4.668;2023-04-27T04:50:15;102137.53;;;4.18;100.00
71778;BME280;59609;52.430;4.668;2023-04-27T04:52:41;102129.66;;;4.28;100.00
71778;BME280;59609;52.430;4.668;2023-04-27T04:55:06;102136.81;;;4.30;100.00
71778;BME280;59609;52.430;4.668;2023-04-27T04:57:32;102133.09;;;4.31;100.00
71778;BME280;59609;52.430;4.668;2023-04-27T04:59:57;102135.53;;;4.36;100.00
71778;BME280;59609;52.430;4.668;2023-04-27T05:02:23;102131.66;;;4.40;100.00
71778;BME280;59609;52.430;4.668;2023-04-27T05:04:48;102132.72;;;4.51;100.00
71778;BME280;59609;52.430;4.668;2023-04-27T05:07:16;102131.09;;;4.63;100.00
71778;BME280;59609;52.430;4.668;2023-04-27T05:09:41;102131.56;;;4.70;100.00
71778;BME280;59609;52.430;4.668;2023-04-27T05:12:07;102129.13;;;4.93;98.92
71778;BME280;59609;52.430;4.668;2023-04-27T05:14:32;102143.53;;;5.50;94.77
71778;BME280;59609;52.430;4.668;2023-04-27T05:16:57;102136.69;;;5.02;96.01
71778;BME280;59609;52.430;4.668;2023-04-27T05:19:23;102144.81;;;4.90;96.64
71778;BME280;59609;52.430;4.668;2023-04-27T05:21:49;102147.91;;;4.98;95.99
71778;BME280;59609;52.430;4.668;2023-04-27T05:24:15;102152.22;;;5.02;96.22
71778;BME280;59609;52.430;4.668;2023-04-27T05:26:41;102153.56;;;5.09;95.64
71778;BME280;59609;52.430;4.668;2023-04-27T05:29:07;102159.56;;;5.28;94.12
71778;BME280;59609;52.430;4.668;2023-04-27T05:31:33;102152.25;;;5.29;93.88
71778;BME280;59609;52.430;4.668;2023-04-27T05:33:58;102145.28;;;5.37;93.80
71778;BME280;59609;52.430;4.668;2023-04-27T05:36:23;102157.50;;;5.46;93.53
71778;BME280;59609;52.430;4.668;2023-04-27T05:38:49;102158.47;;;5.45;93.50
71778;BME280;59609;52.430;4.668;2023-04-27T05:41:14;102152.97;;;5.59;93.59
71778;BME280;59609;52.430;4.668;2023-04-27T05:43:43;102146.56;;;5.72;93.26
71778;BME280;59609;52.430;4.668;2023-04-27T05:46:12;102148.84;;;5.66;93.40
71778;BME280;59609;52.430;4.668;2023-04-27T05:48:37;102138.03;;;5.77;92.69
71778;BME280;59609;52.430;4.668;2023-04-27T05:51:03;102147.78;;;5.81;92.77
71778;BME280;59609;52.430;4.668;2023-04-27T05:53:29;102148.72;;;5.94;92.60
71778;BME280;59609;52.430;4.668;2023-04-27T05:55:57;102145.53;;;5.88;92.84
71778;BME280;59609;52.430;4.668;2023-04-27T05:58:23;102137.50;;;6.11;91.57
71778;BME280;59609;52.430;4.668;2023-04-27T06:00:49;102136.22;;;6.17;91.79
71778;BME280;59609;52.430;4.668;2023-04-27T06:03:15;102137.41;;;6.13;91.39
71778;BME280;59609;52.430;4.668;2023-04-27T06:05:40;102140.59;;;6.19;90.47
71778;BME280;59609;52.430;4.668;2023-04-27T06:08:06;102144.09;;;6.21;89.87
71778;BME280;59609;52.430;4.668;2023-04-27T06:10:31;102149.91;;;6.42;90.04
71778;BME280;59609;52.430;4.668;2023-04-27T06:12:56;102144.09;;;6.34;90.48
71778;BME280;59609;52.430;4.668;2023-04-27T06:15:22;102150.25;;;6.50;89.37
71778;BME280;59609;52.430;4.668;2023-04-27T06:17:47;102148.06;;;6.43;90.20
71778;BME280;59609;52.430;4.668;2023-04-27T06:20:12;102153.88;;;6.63;88.62
71778;BME280;59609;52.430;4.668;2023-04-27T06:22:38;102158.81;;;6.84;87.79
71778;BME280;59609;52.430;4.668;2023-04-27T06:25:04;102162.06;;;6.89;86.82
71778;BME280;59609;52.430;4.668;2023-04-27T06:27:30;102147.81;;;6.96;86.68
71778;BME280;59609;52.430;4.668;2023-04-27T06:29:56;102157.28;;;6.67;86.82
71778;BME280;59609;52.430;4.668;2023-04-27T06:32:22;102160.88;;;6.80;87.18
71778;BME280;59609;52.430;4.668;2023-04-27T06:34:48;102157.78;;;7.10;86.03
71778;BME280;59609;52.430;4.668;2023-04-27T06:37:14;102162.69;;;7.05;85.57
71778;BME280;59609;52.430;4.668;2023-04-27T06:39:41;102159.66;;;6.97;86.02
71778;BME280;59609;52.430;4.668;2023-04-27T06:42:07;102154.25;;;7.44;85.80
71778;BME280;59609;52.430;4.668;2023-04-27T06:44:32;102152.59;;;7.54;84.52
71778;BME280;59609;52.430;4.668;2023-04-27T06:46:57;102151.84;;;7.52;83.24
71778;BME280;59609;52.430;4.668;2023-04-27T06:49:23;102157.78;;;7.46;82.89
71778;BME280;59609;52.430;4.668;2023-04-27T06:51:48;102141.59;;;7.67;82.32
71778;BME280;59609;52.430;4.668;2023-04-27T06:54:14;102142.34;;;7.69;81.63
71778;BME280;59609;52.430;4.668;2023-04-27T06:56:39;102146.47;;;7.98;82.69
71778;BME280;59609;52.430;4.668;2023-04-27T06:59:05;102150.84;;;7.53;83.66
71778;BME280;59609;52.430;4.668;2023-04-27T07:01:30;102145.97;;;7.69;83.01
71778;BME280;59609;52.430;4.668;2023-04-27T07:03:55;102151.06;;;7.74;81.18
71778;BME280;59609;52.430;4.668;2023-04-27T07:06:21;102152.53;;;7.91;81.06
71778;BME280;59609;52.430;4.668;2023-04-27T07:08:47;102151.78;;;7.65;79.94
71778;BME280;59609;52.430;4.668;2023-04-27T07:11:12;102149.75;;;7.80;80.39
71778;BME280;59609;52.430;4.668;2023-04-27T07:13:38;102157.16;;;8.25;77.08
71778;BME280;59609;52.430;4.668;2023-04-27T07:16:03;102155.25;;;8.38;75.35
71778;BME280;59609;52.430;4.668;2023-04-27T07:18:29;102159.28;;;8.56;74.47
71778;BME280;59609;52.430;4.668;2023-04-27T07:20:54;102163.69;;;8.81;73.46
71778;BME280;59609;52.430;4.668;2023-04-27T07:23:22;102163.56;;;8.71;72.96
71778;BME280;59609;52.430;4.668;2023-04-27T07:25:48;102158.56;;;8.76;72.81
71778;BME280;59609;52.430;4.668;2023-04-27T07:28:13;102157.97;;;9.06;71.34
71778;BME280;59609;52.430;4.668;2023-04-27T07:30:39;102160.06;;;8.92;70.71
71778;BME280;59609;52.430;4.668;2023-04-27T07:33:05;102167.91;;;8.63;71.69
71778;BME280;59609;52.430;4.668;2023-04-27T07:35:31;102155.31;;;9.05;71.66
71778;BME280;59609;52.430;4.668;2023-04-27T07:37:58;102160.88;;;9.70;70.57
71778;BME280;59609;52.430;4.668;2023-04-27T07:40:26;102147.75;;;9.62;68.37
71778;BME280;59609;52.430;4.668;2023-04-27T07:42:51;102153.25;;;9.62;67.18
71778;BME280;59609;52.430;4.668;2023-04-27T07:45:17;102160.97;;;9.03;67.67
71778;BME280;59609;52.430;4.668;2023-04-27T07:47:42;102157.72;;;9.20;66.57
71778;BME280;59609;52.430;4.668;2023-04-27T07:50:09;102155.16;;;9.51;64.84
71778;BME280;59609;52.430;4.668;2023-04-27T07:52:34;102163.03;;;9.55;64.24
71778;BME280;59609;52.430;4.668;2023-04-27T07:55:00;102161.72;;;9.81;63.92
71778;BME280;59609;52.430;4.668;2023-04-27T07:57:26;102157.84;;;9.30;64.97
71778;BME280;59609;52.430;4.668;2023-04-27T07:59:51;102164.31;;;9.40;62.94
71778;BME280;59609;52.430;4.668;2023-04-27T08:02:17;102154.84;;;9.76;63.99
71778;BME280;59609;52.430;4.668;2023-04-27T08:04:42;102157.47;;;9.77;63.95
71778;BME280;59609;52.430;4.668;2023-04-27T08:07:07;102157.88;;;10.05;61.46
71778;BME280;59609;52.430;4.668;2023-04-27T08:09:33;102162.00;;;9.67;62.37
71778;BME280;59609;52.430;4.668;2023-04-27T08:11:58;102158.31;;;9.46;62.88
71778;BME280;59609;52.430;4.668;2023-04-27T08:14:23;102161.53;;;9.62;62.60
71778;BME280;59609;52.430;4.668;2023-04-27T08:16:49;102161.78;;;9.70;64.95
71778;BME280;59609;52.430;4.668;2023-04-27T08:19:16;102151.75;;;10.01;60.12
71778;BME280;59609;52.430;4.668;2023-04-27T08:21:42;102149.28;;;10.30;59.47
71778;BME280;59609;52.430;4.668;2023-04-27T08:24:08;102154.03;;;10.28;58.40
71778;BME280;59609;52.430;4.668;2023-04-27T08:26:33;102153.25;;;10.58;57.70
71778;BME280;59609;52.430;4.668;2023-04-27T08:28:59;102147.66;;;10.69;58.39
71778;BME280;59609;52.430;4.668;2023-04-27T08:31:25;102147.41;;;10.30;59.67
71778;BME280;59609;52.430;4.668;2023-04-27T08:33:52;102146.72;;;10.38;59.50
71778;BME280;59609;52.430;4.668;2023-04-27T08:36:20;102147.59;;;10.18;58.60
71778;BME280;59609;52.430;4.668;2023-04-27T08:38:48;102150.56;;;10.26;59.94
71778;BME280;59609;52.430;4.668;2023-04-27T08:41:18;102155.66;;;9.99;58.19
71778;BME280;59609;52.430;4.668;2023-04-27T08:43:45;102150.84;;;10.44;60.19
71778;BME280;59609;52.430;4.668;2023-04-27T08:46:10;102155.25;;;10.35;56.99
71778;BME280;59609;52.430;4.668;2023-04-27T08:48:36;102160.19;;;10.73;56.46
71778;BME280;59609;52.430;4.668;2023-04-27T08:51:02;102157.81;;;10.89;56.20
71778;BME280;59609;52.430;4.668;2023-04-27T08:53:33;102159.72;;;10.98;56.36
71778;BME280;59609;52.430;4.668;2023-04-27T08:55:58;102147.22;;;11.24;55.61
71778;BME280;59609;52.430;4.668;2023-04-27T08:58:37;102149.81;;;11.66;54.42
71778;BME280;59609;52.430;4.668;2023-04-27T09:01:06;102147.00;;;11.47;55.48
71778;BME280;59609;52.430;4.668;2023-04-27T09:03:32;102149.38;;;11.21;55.70
71778;BME280;59609;52.430;4.668;2023-04-27T09:05:59;102139.50;;;10.88;56.91
71778;BME280;59609;52.430;4.668;2023-04-27T09:08:25;102141.94;;;11.12;56.20
71778;BME280;59609;52.430;4.668;2023-04-27T09:10:51;102139.84;;;11.34;55.53
71778;BME280;59609;52.430;4.668;2023-04-27T09:13:17;102139.94;;;11.63;54.67
71778;BME280;59609;52.430;4.668;2023-04-27T09:18:14;102141.59;;;11.75;54.83
71778;BME280;59609;52.430;4.668;2023-04-27T09:20:49;102142.22;;;12.17;53.97
71778;BME280;59609;52.430;4.668;2023-04-27T09:23:25;102146.69;;;12.47;50.94
71778;BME280;59609;52.430;4.668;2023-04-27T09:25:52;102141.00;;;12.49;49.58
71778;BME280;59609;52.430;4.668;2023-04-27T09:28:17;102136.94;;;12.14;50.98
71778;BME280;59609;52.430;4.668;2023-04-27T09:33:23;102141.34;;;12.17;51.08
71778;BME280;59609;52.430;4.668;2023-04-27T09:35:48;102126.19;;;12.02;52.62
71778;BME280;59609;52.430;4.668;2023-04-27T09:38:16;102133.25;;;12.71;49.78
71778;BME280;59609;52.430;4.668;2023-04-27T09:40:42;102129.75;;;13.25;50.04
71778;BME280;59609;52.430;4.668;2023-04-27T09:43:07;102134.44;;;12.59;50.61
71778;BME280;59609;52.430;4.668;2023-04-27T09:45:34;102130.56;;;12.33;50.12
71778;BME280;59609;52.430;4.668;2023-04-27T09:48:00;102126.72;;;12.63;51.19
71778;BME280;59609;52.430;4.668;2023-04-27T09:50:25;102133.00;;;12.55;49.92
71778;BME280;59609;52.430;4.668;2023-04-27T09:52:51;102135.66;;;12.18;49.97
71778;BME280;59609;52.430;4.668;2023-04-27T09:55:20;102131.31;;;12.81;49.47
71778;BME280;59609;52.430;4.668;2023-04-27T09:57:57;102134.56;;;12.77;48.31
71778;BME280;59609;52.430;4.668;2023-04-27T10:03:10;102127.34;;;12.47;49.92
71778;BME280;59609;52.430;4.668;2023-04-27T10:08:59;102123.56;;;12.38;49.61
71778;BME280;59609;52.430;4.668;2023-04-27T10:11:38;102124.38;;;13.14;49.48
71778;BME280;59609;52.430;4.668;2023-04-27T10:14:06;102127.13;;;13.51;48.92
71778;BME280;59609;52.430;4.668;2023-04-27T10:16:43;102135.97;;;12.90;49.34
71778;BME280;59609;52.430;4.668;2023-04-27T10:19:09;102129.16;;;13.22;48.38
71778;BME280;59609;52.430;4.668;2023-04-27T10:21:35;102134.53;;;12.86;48.70
71778;BME280;59609;52.430;4.668;2023-04-27T10:24:06;102130.16;;;12.94;49.22
71778;BME280;59609;52.430;4.668;2023-04-27T10:26:33;102134.72;;;13.49;46.49
71778;BME280;59609;52.430;4.668;2023-04-27T10:29:08;102132.56;;;13.43;45.44
71778;BME280;59609;52.430;4.668;2023-04-27T10:31:34;102124.06;;;13.54;45.45
71778;BME280;59609;52.430;4.668;2023-04-27T10:34:09;102135.97;;;12.81;46.72
71778;BME280;59609;52.430;4.668;2023-04-27T10:36:38;102129.47;;;13.19;47.50
71778;BME280;59609;52.430;4.668;2023-04-27T10:39:20;102126.72;;;13.73;46.53
71778;BME280;59609;52.430;4.668;2023-04-27T10:41:55;102116.81;;;13.71;46.71
71778;BME280;59609;52.430;4.668;2023-04-27T10:44:28;102122.06;;;14.09;45.61
71778;BME280;59609;52.430;4.668;2023-04-27T10:46:56;102122.53;;;13.87;44.81
71778;BME280;59609;52.430;4.668;2023-04-27T10:49:22;102115.25;;;14.04;45.61
71778;BME280;59609;52.430;4.668;2023-04-27T10:51:50;102128.09;;;13.32;44.43
71778;BME280;59609;52.430;4.668;2023-04-27T10:54:15;102106.22;;;14.02;45.91
71778;BME280;59609;52.430;4.668;2023-04-27T10:56:41;102104.97;;;13.96;43.45
71778;BME280;59609;52.430;4.668;2023-04-27T10:59:07;102108.97;;;14.19;43.46
71778;BME280;59609;52.430;4.668;2023-04-27T11:01:34;102099.09;;;14.17;43.20
71778;BME280;59609;52.430;4.668;2023-04-27T11:04:00;102099.94;;;15.04;42.76
71778;BME280;59609;52.430;4.668;2023-04-27T11:06:28;102107.00;;;13.76;42.87
71778;BME280;59609;52.430;4.668;2023-04-27T11:08:54;102097.25;;;14.25;42.21
71778;BME280;59609;52.430;4.668;2023-04-27T11:11:21;102101.69;;;14.18;39.89
71778;BME280;59609;52.430;4.668;2023-04-27T11:13:50;102086.59;;;15.08;39.74
71778;BME280;59609;52.430;4.668;2023-04-27T11:16:17;102096.69;;;14.57;40.77
71778;BME280;59609;52.430;4.668;2023-04-27T11:18:44;102091.66;;;14.35;40.71
71778;BME280;59609;52.430;4.668;2023-04-27T11:21:11;102086.06;;;14.78;38.78
71778;BME280;59609;52.430;4.668;2023-04-27T11:23:38;102084.69;;;14.74;40.78
71778;BME280;59609;52.430;4.668;2023-04-27T11:26:11;102087.53;;;14.04;40.16
71778;BME280;59609;52.430;4.668;2023-04-27T11:28:39;102086.75;;;13.93;40.61
71778;BME280;59609;52.430;4.668;2023-04-27T11:31:05;102085.53;;;15.09;40.31
71778;BME280;59609;52.430;4.668;2023-04-27T11:33:31;102080.59;;;15.28;36.88
71778;BME280;59609;52.430;4.668;2023-04-27T11:35:57;102077.16;;;15.84;35.74
71778;BME280;59609;52.430;4.668;2023-04-27T11:38:22;102081.28;;;15.64;35.60
71778;BME280;59609;52.430;4.668;2023-04-27T11:41:05;102076.53;;;15.07;37.39
71778;BME280;59609;52.430;4.668;2023-04-27T11:43:31;102075.63;;;14.72;38.72
71778;BME280;59609;52.430;4.668;2023-04-27T11:45:57;102064.31;;;15.41;38.51
71778;BME280;59609;52.430;4.668;2023-04-27T11:48:23;102075.59;;;14.64;37.24
71778;BME280;59609;52.430;4.668;2023-04-27T11:50:49;102070.22;;;14.97;37.38
71778;BME280;59609;52.430;4.668;2023-04-27T11:53:15;102063.94;;;15.28;36.09
71778;BME280;59609;52.430;4.668;2023-04-27T11:55:41;102067.63;;;15.37;36.59
71778;BME280;59609;52.430;4.668;2023-04-27T11:58:14;102067.25;;;15.98;35.98
71778;BME280;59609;52.430;4.668;2023-04-27T12:00:41;102073.41;;;15.52;35.56
71778;BME280;59609;52.430;4.668;2023-04-27T12:03:08;102067.38;;;15.56;36.32
71778;BME280;59609;52.430;4.668;2023-04-27T12:05:34;102068.84;;;16.09;36.85
71778;BME280;59609;52.430;4.668;2023-04-27T12:07:59;102065.88;;;16.59;36.87
71778;BME280;59609;52.430;4.668;2023-04-27T12:10:25;102056.03;;;17.42;34.95
71778;BME280;59609;52.430;4.668;2023-04-27T12:12:50;102058.16;;;17.40;34.84
71778;BME280;59609;52.430;4.668;2023-04-27T12:15:15;102048.22;;;17.99;33.98
71778;BME280;59609;52.430;4.668;2023-04-27T12:17:41;102053.13;;;17.74;34.61
71778;BME280;59609;52.430;4.668;2023-04-27T12:20:07;102055.16;;;17.03;34.50
71778;BME280;59609;52.430;4.668;2023-04-27T12:22:32;102043.25;;;16.70;36.61
71778;BME280;59609;52.430;4.668;2023-04-27T12:24:58;102039.41;;;16.79;35.85
71778;BME280;59609;52.430;4.668;2023-04-27T12:27:23;102043.28;;;17.17;35.31
71778;BME280;59609;52.430;4.668;2023-04-27T12:29:48;102043.41;;;16.84;36.05
71778;BME280;59609;52.430;4.668;2023-04-27T12:32:14;102049.28;;;16.97;35.52
71778;BME280;59609;52.430;4.668;2023-04-27T12:34:40;102050.59;;;17.48;35.29
71778;BME280;59609;52.430;4.668;2023-04-27T12:37:07;102041.72;;;16.35;36.08
71778;BME280;59609;52.430;4.668;2023-04-27T12:39:32;102038.16;;;16.97;36.54
71778;BME280;59609;52.430;4.668;2023-04-27T12:41:57;102028.50;;;16.53;36.81
71778;BME280;59609;52.430;4.668;2023-04-27T12:44:23;102026.06;;;15.69;38.10
71778;BME280;59609;52.430;4.668;2023-04-27T12:46:48;102041.38;;;15.73;38.34
71778;BME280;59609;52.430;4.668;2023-04-27T12:49:15;102036.69;;;15.32;39.35
71778;BME280;59609;52.430;4.668;2023-04-27T12:51:41;102034.94;;;16.05;38.42
71778;BME280;59609;52.430;4.668;2023-04-27T12:54:08;102027.06;;;15.52;38.68
71778;BME280;59609;52.430;4.668;2023-04-27T12:56:34;102022.03;;;15.56;39.44
71778;BME280;59609;52.430;4.668;2023-04-27T12:59:00;102025.22;;;16.09;38.12